sensor_id;sensor_type;location;lat;lon;timestamp;pressure;altitude;pressure_sealevel;temperature;humidity
13068;BME280;6600;51.362;6.686;2023-04-24T00:00:05;99672.88;;;12.29;93.77
13068;BME280;6600;51.362;6.686;2023-04-24T00:02:31;99670.09;;;12.24;93.89
13068;BME280;6600;51.362;6.686;2023-04-24T00:04:57;99680.38;;;12.27;93.46
13068;BME280;6600;51.362;6.686;2023-04-24T00:07:28;99669.78;;;12.21;93.60
13068;BME280;6600;51.362;6.686;2023-04-24T00:09:54;99672.25;;;12.22;93.61
13068;BME280;6600;51.362;6.686;2023-04-24T00:12:20;99669.00;;;12.20;93.28
13068;BME280;6600;51.362;6.686;2023-04-24T00:14:45;99672.31;;;12.27;92.81
13068;BME280;6600;51.362;6.686;2023-04-24T00:17:10;99668.19;;;12.20;93.08
13068;BME280;6600;51.362;6.686;2023-04-24T00:19:36;99672.25;;;12.22;92.81
13068;BME280;6600;51.362;6.686;2023-04-24T00:22:02;99671.13;;;12.18;92.70
13068;BME280;6600;51.362;6.686;2023-04-24T00:24:27;99671.13;;;12.18;93.00
13068;BME280;6600;51.362;6.686;2023-04-24T00:26:53;99671.19;;;12.23;92.93
13068;BME280;6600;51.362;6.686;2023-04-24T00:29:18;99679.75;;;12.20;92.27
13068;BME280;6600;51.362;6.686;2023-04-24T00:31:43;99679.75;;;12.20;93.04
13068;BME280;6600;51.362;6.686;2023-04-24T00:34:09;99681.03;;;12.18;93.31
13068;BME280;6600;51.362;6.686;2023-04-24T00:36:35;99675.25;;;12.04;93.83
13068;BME280;6600;51.362;6.686;2023-04-24T00:39:00;99675.13;;;11.94;93.53
13068;BME280;6600;51.362;6.686;2023-04-24T00:41:26;99691.19;;;11.89;92.44
13068;BME280;6600;51.362;6.686;2023-04-24T00:43:52;99685.19;;;11.82;91.98
13068;BME280;6600;51.362;6.686;2023-04-24T00:46:18;99686.31;;;11.69;92.20
13068;BME280;6600;51.362;6.686;2023-04-24T00:48:44;99685.34;;;11.58;92.22
13068;BME280;6600;51.362;6.686;2023-04-24T00:51:09;99684.97;;;11.50;92.57
13068;BME280;6600;51.362;6.686;2023-04-24T00:53:35;99691.81;;;11.41;92.69
13068;BME280;6600;51.362;6.686;2023-04-24T00:56:01;99692.59;;;11.41;92.37
13068;BME280;6600;51.362;6.686;2023-04-24T00:58:27;99685.06;;;11.38;92.67
13068;BME280;6600;51.362;6.686;2023-04-24T01:00:54;99687.19;;;11.36;93.42
13068;BME280;6600;51.362;6.686;2023-04-24T01:03:22;99679.53;;;11.28;92.82
13068;BME280;6600;51.362;6.686;2023-04-24T01:05:49;99684.84;;;11.23;92.79
13068;BME280;6600;51.362;6.686;2023-04-24T01:08:15;99673.53;;;11.21;93.00
13068;BME280;6600;51.362;6.686;2023-04-24T01:10:41;99673.88;;;11.08;93.06
13068;BME280;6600;51.362;6.686;2023-04-24T01:13:08;99673.22;;;11.01;93.31
13068;BME280;6600;51.362;6.686;2023-04-24T01:15:34;99675.41;;;11.04;93.55
13068;BME280;6600;51.362;6.686;2023-04-24T01:17:59;99673.63;;;10.93;93.91
13068;BME280;6600;51.362;6.686;2023-04-24T01:20:25;99677.34;;;10.92;93.89
13068;BME280;6600;51.362;6.686;2023-04-24T01:22:51;99676.53;;;10.91;94.23
13068;BME280;6600;51.362;6.686;2023-04-24T01:25:17;99671.91;;;10.87;94.26
13068;BME280;6600;51.362;6.686;2023-04-24T01:27:43;99675.06;;;10.84;94.62
13068;BME280;6600;51.362;6.686;2023-04-24T01:30:09;99673.53;;;10.88;94.84
13068;BME280;6600;51.362;6.686;2023-04-24T01:32:35;99674.09;;;10.90;95.41
13068;BME280;6600;51.362;6.686;2023-04-24T01:35:01;99670.38;;;10.91;95.18
13068;BME280;6600;51.362;6.686;2023-04-24T01:37:27;99659.97;;;10.94;95.45
13068;BME280;6600;51.362;6.686;2023-04-24T01:39:52;99671.34;;;10.85;96.30
13068;BME280;6600;51.362;6.686;2023-04-24T01:42:18;99679.00;;;10.93;95.76
13068;BME280;6600;51.362;6.686;2023-04-24T01:44:43;99679.56;;;10.95;94.96
13068;BME280;6600;51.362;6.686;2023-04-24T01:47:09;99681.25;;;11.01;95.21
13068;BME280;6600;51.362;6.686;2023-04-24T01:49:35;99683.69;;;10.86;94.98
13068;BME280;6600;51.362;6.686;2023-04-24T01:52:00;99673.63;;;10.93;95.05
13068;BME280;6600;51.362;6.686;2023-04-24T01:54:25;99678.91;;;10.88;95.05
13068;BME280;6600;51.362;6.686;2023-04-24T01:56:51;99679.44;;;10.90;94.77
13068;BME280;6600;51.362;6.686;2023-04-24T01:59:17;99676.69;;;10.85;95.17
13068;BME280;6600;51.362;6.686;2023-04-24T02:01:42;99679.78;;;10.77;95.56
13068;BME280;6600;51.362;6.686;2023-04-24T02:04:08;99679.78;;;10.77;95.13
13068;BME280;6600;51.362;6.686;2023-04-24T02:06:34;99680.59;;;10.77;95.03
13068;BME280;6600;51.362;6.686;2023-04-24T02:08:59;99682.06;;;10.85;95.02
13068;BME280;6600;51.362;6.686;2023-04-24T02:11:25;99690.66;;;10.87;95.20
13068;BME280;6600;51.362;6.686;2023-04-24T02:13:50;99683.94;;;10.84;95.25
13068;BME280;6600;51.362;6.686;2023-04-24T02:16:17;99686.28;;;10.81;95.53
13068;BME280;6600;51.362;6.686;2023-04-24T02:18:42;99694.09;;;10.82;95.30
13068;BME280;6600;51.362;6.686;2023-04-24T02:21:07;99681.41;;;10.78;95.57
13068;BME280;6600;51.362;6.686;2023-04-24T02:23:33;99686.13;;;10.87;95.28
13068;BME280;6600;51.362;6.686;2023-04-24T02:25:58;99684.41;;;10.81;95.58
13068;BME280;6600;51.362;6.686;2023-04-24T02:28:23;99687.41;;;10.85;95.71
13068;BME280;6600;51.362;6.686;2023-04-24T02:30:50;99681.72;;;10.81;95.62
13068;BME280;6600;51.362;6.686;2023-04-24T02:33:15;99671.41;;;10.73;96.10
13068;BME280;6600;51.362;6.686;2023-04-24T02:35:41;99673.25;;;10.73;95.65
13068;BME280;6600;51.362;6.686;2023-04-24T02:38:06;99671.16;;;10.75;95.78
13068;BME280;6600;51.362;6.686;2023-04-24T02:40:31;99674.91;;;10.74;95.95
13068;BME280;6600;51.362;6.686;2023-04-24T02:42:57;99673.69;;;10.81;95.87
13068;BME280;6600;51.362;6.686;2023-04-24T02:45:22;99676.03;;;10.78;96.27
13068;BME280;6600;51.362;6.686;2023-04-24T02:47:49;99672.88;;;10.81;95.81
13068;BME280;6600;51.362;6.686;2023-04-24T02:50:14;99675.56;;;10.81;95.85
13068;BME280;6600;51.362;6.686;2023-04-24T02:52:39;99685.78;;;10.84;96.03
13068;BME280;6600;51.362;6.686;2023-04-24T02:55:05;99674.25;;;10.83;96.14
13068;BME280;6600;51.362;6.686;2023-04-24T02:57:31;99678.78;;;10.83;96.06
13068;BME280;6600;51.362;6.686;2023-04-24T02:59:56;99680.91;;;10.81;95.97
13068;BME280;6600;51.362;6.686;2023-04-24T03:02:21;99690.47;;;10.77;96.16
13068;BME280;6600;51.362;6.686;2023-04-24T03:04:47;99690.66;;;10.87;95.91
13068;BME280;6600;51.362;6.686;2023-04-24T03:07:13;99689.44;;;10.78;96.35
13068;BME280;6600;51.362;6.686;2023-04-24T03:09:40;99694.09;;;10.82;96.16
13068;BME280;6600;51.362;6.686;2023-04-24T03:12:05;99695.34;;;10.80;96.43
13068;BME280;6600;51.362;6.686;2023-04-24T03:14:30;99698.53;;;10.77;96.17
13068;BME280;6600;51.362;6.686;2023-04-24T03:16:56;99700.22;;;10.83;96.27
13068;BME280;6600;51.362;6.686;2023-04-24T03:19:21;99698.38;;;10.83;96.06
13068;BME280;6600;51.362;6.686;2023-04-24T03:21:47;99704.00;;;10.82;96.09
13068;BME280;6600;51.362;6.686;2023-04-24T03:24:12;99706.50;;;10.72;96.63
13068;BME280;6600;51.362;6.686;2023-04-24T03:26:38;99704.47;;;10.79;96.45
13068;BME280;6600;51.362;6.686;2023-04-24T03:29:03;99712.75;;;10.77;96.08
13068;BME280;6600;51.362;6.686;2023-04-24T03:31:28;99711.91;;;10.77;96.39
13068;BME280;6600;51.362;6.686;2023-04-24T03:33:54;99702.84;;;10.78;95.62
13068;BME280;6600;51.362;6.686;2023-04-24T03:36:19;99704.00;;;10.82;95.93
13068;BME280;6600;51.362;6.686;2023-04-24T03:38:45;99694.88;;;10.83;95.75
13068;BME280;6600;51.362;6.686;2023-04-24T03:41:10;99706.66;;;10.82;95.18
13068;BME280;6600;51.362;6.686;2023-04-24T03:43:37;99708.03;;;10.84;95.39
13068;BME280;6600;51.362;6.686;2023-04-24T03:46:02;99719.00;;;10.83;95.23
13068;BME280;6600;51.362;6.686;2023-04-24T03:48:28;99714.22;;;10.85;95.58
13068;BME280;6600;51.362;6.686;2023-04-24T03:50:53;99714.88;;;10.92;95.93
13068;BME280;6600;51.362;6.686;2023-04-24T03:53:18;99708.22;;;10.94;95.13
13068;BME280;6600;51.362;6.686;2023-04-24T03:55:45;99705.84;;;10.81;95.18
13068;BME280;6600;51.362;6.686;2023-04-24T03:58:10;99724.44;;;10.88;95.04
13068;BME280;6600;51.362;6.686;2023-04-24T04:00:36;99710.00;;;10.89;95.47
13068;BME280;6600;51.362;6.686;2023-04-24T04:03:02;99708.84;;;10.85;95.68
13068;BME280;6600;51.362;6.686;2023-04-24T04:05:28;99714.56;;;10.88;95.31
13068;BME280;6600;51.362;6.686;2023-04-24T04:07:54;99714.78;;;10.87;95.55
13068;BME280;6600;51.362;6.686;2023-04-24T04:10:19;99708.38;;;10.88;95.59
13068;BME280;6600;51.362;6.686;2023-04-24T04:12:44;99710.94;;;10.83;95.37
13068;BME280;6600;51.362;6.686;2023-04-24T04:15:10;99715.03;;;10.85;95.35
13068;BME280;6600;51.362;6.686;2023-04-24T04:17:35;99720.13;;;10.87;95.40
13068;BME280;6600;51.362;6.686;2023-04-24T04:20:03;99723.97;;;10.91;95.05
13068;BME280;6600;51.362;6.686;2023-04-24T04:22:32;99720.72;;;10.89;95.06
13068;BME280;6600;51.362;6.686;2023-04-24T04:24:57;99727.03;;;10.83;94.93
13068;BME280;6600;51.362;6.686;2023-04-24T04:27:22;99721.00;;;10.76;94.72
13068;BME280;6600;51.362;6.686;2023-04-24T04:29:48;99729.53;;;10.73;95.54
13068;BME280;6600;51.362;6.686;2023-04-24T04:32:13;99726.84;;;10.73;95.31
13068;BME280;6600;51.362;6.686;2023-04-24T04:34:39;99729.78;;;10.71;95.27
13068;BME280;6600;51.362;6.686;2023-04-24T04:37:04;99730.59;;;10.72;94.99
13068;BME280;6600;51.362;6.686;2023-04-24T04:39:30;99725.56;;;10.75;94.24
13068;BME280;6600;51.362;6.686;2023-04-24T04:41:56;99732.50;;;10.88;94.28
13068;BME280;6600;51.362;6.686;2023-04-24T04:44:22;99733.53;;;10.87;94.04
13068;BME280;6600;51.362;6.686;2023-04-24T04:46:48;99740.69;;;10.81;94.11
13068;BME280;6600;51.362;6.686;2023-04-24T04:49:14;99739.75;;;10.76;93.88
13068;BME280;6600;51.362;6.686;2023-04-24T04:51:41;99738.72;;;10.77;93.72
13068;BME280;6600;51.362;6.686;2023-04-24T04:54:07;99747.91;;;10.81;93.49
13068;BME280;6600;51.362;6.686;2023-04-24T04:56:33;99744.06;;;10.77;94.34
13068;BME280;6600;51.362;6.686;2023-04-24T04:58:58;99743.41;;;10.70;94.66
13068;BME280;6600;51.362;6.686;2023-04-24T05:01:24;99749.16;;;10.61;94.98
13068;BME280;6600;51.362;6.686;2023-04-24T05:03:50;99741.47;;;10.65;95.28
13068;BME280;6600;51.362;6.686;2023-04-24T05:06:16;99753.44;;;10.62;95.57
13068;BME280;6600;51.362;6.686;2023-04-24T05:08:41;99752.78;;;10.55;97.10
13068;BME280;6600;51.362;6.686;2023-04-24T05:11:06;99752.72;;;10.39;99.03
13068;BME280;6600;51.362;6.686;2023-04-24T05:13:32;99749.63;;;10.30;100.00
13068;BME280;6600;51.362;6.686;2023-04-24T05:15:57;99747.88;;;10.24;100.00
13068;BME280;6600;51.362;6.686;2023-04-24T05:18:23;99748.81;;;10.18;100.00
13068;BME280;6600;51.362;6.686;2023-04-24T05:20:48;99744.06;;;10.20;100.00
13068;BME280;6600;51.362;6.686;2023-04-24T05:23:13;99750.78;;;10.11;100.00
13068;BME280;6600;51.362;6.686;2023-04-24T05:25:39;99754.06;;;10.13;100.00
13068;BME280;6600;51.362;6.686;2023-04-24T05:28:05;99751.97;;;10.15;100.00
13068;BME280;6600;51.362;6.686;2023-04-24T05:30:30;99753.84;;;10.03;100.00
13068;BME280;6600;51.362;6.686;2023-04-24T05:32:56;99750.56;;;10.01;100.00
13068;BME280;6600;51.362;6.686;2023-04-24T05:35:21;99738.22;;;10.00;100.00
13068;BME280;6600;51.362;6.686;2023-04-24T05:37:46;99748.22;;;10.04;100.00
13068;BME280;6600;51.362;6.686;2023-04-24T05:40:12;99750.91;;;10.04;100.00
13068;BME280;6600;51.362;6.686;2023-04-24T05:42:37;99751.25;;;10.08;100.00
13068;BME280;6600;51.362;6.686;2023-04-24T05:45:03;99752.06;;;10.08;100.00
13068;BME280;6600;51.362;6.686;2023-04-24T05:47:29;99752.63;;;10.10;100.00
13068;BME280;6600;51.362;6.686;2023-04-24T05:49:54;99754.53;;;10.10;100.00
13068;BME280;6600;51.362;6.686;2023-04-24T05:52:20;99750.53;;;10.24;100.00
13068;BME280;6600;51.362;6.686;2023-04-24T05:54:45;99759.66;;;10.23;100.00
13068;BME280;6600;51.362;6.686;2023-04-24T05:57:10;99750.09;;;10.27;100.00
13068;BME280;6600;51.362;6.686;2023-04-24T05:59:37;99763.56;;;10.32;100.00
13068;BME280;6600;51.362;6.686;2023-04-24T06:02:06;99765.34;;;10.27;100.00
13068;BME280;6600;51.362;6.686;2023-04-24T06:04:32;99753.47;;;10.23;100.00
13068;BME280;6600;51.362;6.686;2023-04-24T06:06:57;99755.91;;;10.24;100.00
13068;BME280;6600;51.362;6.686;2023-04-24T06:09:23;99756.97;;;10.23;100.00
13068;BME280;6600;51.362;6.686;2023-04-24T06:11:49;99758.13;;;10.16;100.00
13068;BME280;6600;51.362;6.686;2023-04-24T06:14:14;99758.38;;;10.14;100.00
13068;BME280;6600;51.362;6.686;2023-04-24T06:16:42;99763.84;;;10.19;100.00
13068;BME280;6600;51.362;6.686;2023-04-24T06:19:07;99765.00;;;10.23;100.00
13068;BME280;6600;51.362;6.686;2023-04-24T06:21:33;99765.66;;;10.07;100.00
13068;BME280;6600;51.362;6.686;2023-04-24T06:23:58;99766.84;;;10.11;100.00
13068;BME280;6600;51.362;6.686;2023-04-24T06:26:23;99766.84;;;10.11;100.00
13068;BME280;6600;51.362;6.686;2023-04-24T06:28:51;99767.78;;;10.05;100.00
13068;BME280;6600;51.362;6.686;2023-04-24T06:31:16;99765.31;;;10.03;100.00
13068;BME280;6600;51.362;6.686;2023-04-24T06:33:42;99763.13;;;10.12;100.00
13068;BME280;6600;51.362;6.686;2023-04-24T06:36:08;99764.88;;;10.06;100.00
13068;BME280;6600;51.362;6.686;2023-04-24T06:38:33;99773.00;;;10.00;100.00
13068;BME280;6600;51.362;6.686;2023-04-24T06:40:59;99770.00;;;9.96;100.00
13068;BME280;6600;51.362;6.686;2023-04-24T06:43:24;99769.28;;;10.01;100.00
13068;BME280;6600;51.362;6.686;2023-04-24T06:45:50;99765.47;;;9.97;100.00
13068;BME280;6600;51.362;6.686;2023-04-24T06:48:15;99767.09;;;9.98;100.00
13068;BME280;6600;51.362;6.686;2023-04-24T06:50:40;99768.25;;;10.02;100.00
13068;BME280;6600;51.362;6.686;2023-04-24T06:53:06;99772.66;;;10.08;100.00
13068;BME280;6600;51.362;6.686;2023-04-24T06:55:31;99768.69;;;10.10;100.00
13068;BME280;6600;51.362;6.686;2023-04-24T06:57:57;99763.72;;;10.14;100.00
13068;BME280;6600;51.362;6.686;2023-04-24T07:00:22;99759.88;;;10.10;100.00
13068;BME280;6600;51.362;6.686;2023-04-24T07:02:49;99772.44;;;10.21;100.00
13068;BME280;6600;51.362;6.686;2023-04-24T07:05:14;99761.53;;;9.99;100.00
13068;BME280;6600;51.362;6.686;2023-04-24T07:07:40;99771.97;;;10.01;100.00
13068;BME280;6600;51.362;6.686;2023-04-24T07:10:06;99758.97;;;9.93;100.00
13068;BME280;6600;51.362;6.686;2023-04-24T07:12:31;99767.31;;;9.96;100.00
13068;BME280;6600;51.362;6.686;2023-04-24T07:14:57;99777.56;;;9.88;100.00
13068;BME280;6600;51.362;6.686;2023-04-24T07:17:22;99783.03;;;9.70;100.00
13068;BME280;6600;51.362;6.686;2023-04-24T07:19:48;99783.13;;;9.86;100.00
13068;BME280;6600;51.362;6.686;2023-04-24T07:22:13;99777.81;;;9.75;100.00
13068;BME280;6600;51.362;6.686;2023-04-24T07:24:43;99777.81;;;9.75;100.00
13068;BME280;6600;51.362;6.686;2023-04-24T07:27:08;99783.03;;;9.81;100.00
13068;BME280;6600;51.362;6.686;2023-04-24T07:29:34;99788.16;;;9.71;100.00
13068;BME280;6600;51.362;6.686;2023-04-24T07:31:59;99778.94;;;9.55;100.00
13068;BME280;6600;51.362;6.686;2023-04-24T07:34:24;99787.91;;;9.49;100.00
13068;BME280;6600;51.362;6.686;2023-04-24T07:36:50;99790.59;;;9.49;100.00
13068;BME280;6600;51.362;6.686;2023-04-24T07:39:16;99781.28;;;9.40;100.00
13068;BME280;6600;51.362;6.686;2023-04-24T07:41:41;99778.00;;;9.38;100.00
13068;BME280;6600;51.362;6.686;2023-04-24T07:44:06;99791.72;;;9.30;100.00
13068;BME280;6600;51.362;6.686;2023-04-24T07:46:32;99791.94;;;9.29;100.00
13068;BME280;6600;51.362;6.686;2023-04-24T07:48:57;99798.31;;;9.28;100.00
13068;BME280;6600;51.362;6.686;2023-04-24T07:51:24;99791.25;;;9.33;100.00
13068;BME280;6600;51.362;6.686;2023-04-24T07:53:51;99812.41;;;9.23;100.00
13068;BME280;6600;51.362;6.686;2023-04-24T07:56:16;99813.09;;;9.30;100.00
13068;BME280;6600;51.362;6.686;2023-04-24T07:58:42;99809.50;;;9.36;100.00
13068;BME280;6600;51.362;6.686;2023-04-24T08:01:07;99807.09;;;9.46;100.00
13068;BME280;6600;51.362;6.686;2023-04-24T08:03:32;99809.75;;;9.46;100.00
13068;BME280;6600;51.362;6.686;2023-04-24T08:05:58;99808.00;;;9.40;100.00
13068;BME280;6600;51.362;6.686;2023-04-24T08:08:23;99807.56;;;9.43;100.00
13068;BME280;6600;51.362;6.686;2023-04-24T08:10:49;99813.63;;;9.50;100.00
13068;BME280;6600;51.362;6.686;2023-04-24T08:13:14;99815.34;;;9.56;100.00
13068;BME280;6600;51.362;6.686;2023-04-24T08:15:40;99824.91;;;9.64;100.00
13068;BME280;6600;51.362;6.686;2023-04-24T08:18:05;99831.66;;;9.67;100.00
13068;BME280;6600;51.362;6.686;2023-04-24T08:20:30;99836.53;;;9.58;100.00
13068;BME280;6600;51.362;6.686;2023-04-24T08:22:56;99847.34;;;9.51;100.00
13068;BME280;6600;51.362;6.686;2023-04-24T08:25:21;99853.13;;;9.48;100.00
13068;BME280;6600;51.362;6.686;2023-04-24T08:27:48;99867.56;;;9.47;100.00
13068;BME280;6600;51.362;6.686;2023-04-24T08:30:13;99870.09;;;9.42;100.00
13068;BME280;6600;51.362;6.686;2023-04-24T08:32:39;99878.25;;;9.47;100.00
13068;BME280;6600;51.362;6.686;2023-04-24T08:35:04;99887.00;;;9.66;100.00
13068;BME280;6600;51.362;6.686;2023-04-24T08:37:30;99890.94;;;9.63;100.00
13068;BME280;6600;51.362;6.686;2023-04-24T08:39:55;99897.59;;;9.73;100.00
13068;BME280;6600;51.362;6.686;2023-04-24T08:42:21;99909.47;;;9.77;100.00
13068;BME280;6600;51.362;6.686;2023-04-24T08:44:48;99910.66;;;9.81;100.00
13068;BME280;6600;51.362;6.686;2023-04-24T08:47:15;99913.69;;;9.84;100.00
13068;BME280;6600;51.362;6.686;2023-04-24T08:49:40;99913.91;;;9.83;100.00
13068;BME280;6600;51.362;6.686;2023-04-24T08:52:06;99926.13;;;9.79;100.00
13068;BME280;6600;51.362;6.686;2023-04-24T08:54:35;99938.56;;;9.85;100.00
13068;BME280;6600;51.362;6.686;2023-04-24T08:57:02;99944.22;;;9.65;100.00
13068;BME280;6600;51.362;6.686;2023-04-24T08:59:29;99939.00;;;9.70;100.00
13068;BME280;6600;51.362;6.686;2023-04-24T09:01:55;99949.03;;;9.75;100.00
13068;BME280;6600;51.362;6.686;2023-04-24T09:04:22;99963.22;;;9.75;100.00
13068;BME280;6600;51.362;6.686;2023-04-24T09:06:50;99967.59;;;9.70;100.00
13068;BME280;6600;51.362;6.686;2023-04-24T09:09:17;99978.44;;;9.75;100.00
13068;BME280;6600;51.362;6.686;2023-04-24T09:11:43;99998.47;;;9.72;100.00
13068;BME280;6600;51.362;6.686;2023-04-24T09:14:09;99981.13;;;9.75;100.00
13068;BME280;6600;51.362;6.686;2023-04-24T09:16:35;100005.50;;;9.67;100.00
13068;BME280;6600;51.362;6.686;2023-04-24T09:19:00;100021.09;;;9.70;100.00
13068;BME280;6600;51.362;6.686;2023-04-24T09:21:31;100025.41;;;9.71;100.00
13068;BME280;6600;51.362;6.686;2023-04-24T09:24:03;100019.19;;;9.58;100.00
13068;BME280;6600;51.362;6.686;2023-04-24T09:26:34;100032.13;;;9.61;100.00
13068;BME280;6600;51.362;6.686;2023-04-24T09:29:00;100031.41;;;9.54;100.00
13068;BME280;6600;51.362;6.686;2023-04-24T09:31:27;100055.47;;;9.54;100.00
13068;BME280;6600;51.362;6.686;2023-04-24T09:34:11;100054.66;;;9.54;100.00
13068;BME280;6600;51.362;6.686;2023-04-24T09:36:39;100067.69;;;9.62;100.00
13068;BME280;6600;51.362;6.686;2023-04-24T09:39:07;100066.47;;;9.64;100.00
13068;BME280;6600;51.362;6.686;2023-04-24T09:41:33;100064.72;;;9.70;100.00
13068;BME280;6600;51.362;6.686;2023-04-24T09:44:14;100067.94;;;9.79;100.00
13068;BME280;6600;51.362;6.686;2023-04-24T09:46:41;100088.16;;;9.56;100.00
13068;BME280;6600;51.362;6.686;2023-04-24T09:49:08;100083.34;;;9.65;100.00
13068;BME280;6600;51.362;6.686;2023-04-24T09:51:36;100098.56;;;9.64;100.00
13068;BME280;6600;51.362;6.686;2023-04-24T09:54:03;100102.47;;;9.80;100.00
13068;BME280;6600;51.362;6.686;2023-04-24T09:56:32;100112.03;;;9.88;100.00
13068;BME280;6600;51.362;6.686;2023-04-24T09:59:07;100108.28;;;10.07;100.00
13068;BME280;6600;51.362;6.686;2023-04-24T10:01:33;100128.75;;;10.20;100.00
13068;BME280;6600;51.362;6.686;2023-04-24T10:03:59;100117.75;;;10.09;100.00
13068;BME280;6600;51.362;6.686;2023-04-24T10:06:33;100139.81;;;10.23;100.00
13068;BME280;6600;51.362;6.686;2023-04-24T10:08:59;100142.25;;;10.25;100.00
13068;BME280;6600;51.362;6.686;2023-04-24T10:11:26;100139.00;;;10.23;100.00
13068;BME280;6600;51.362;6.686;2023-04-24T10:13:52;100143.53;;;10.22;100.00
13068;BME280;6600;51.362;6.686;2023-04-24T10:16:20;100151.25;;;10.30;100.00
13068;BME280;6600;51.362;6.686;2023-04-24T10:18:48;100147.25;;;10.21;100.00
13068;BME280;6600;51.362;6.686;2023-04-24T10:21:17;100161.91;;;10.19;100.00
13068;BME280;6600;51.362;6.686;2023-04-24T10:23:42;100177.59;;;10.33;100.00
13068;BME280;6600;51.362;6.686;2023-04-24T10:26:12;100166.53;;;10.41;100.00
13068;BME280;6600;51.362;6.686;2023-04-24T10:28:44;100172.31;;;10.56;100.00
13068;BME280;6600;51.362;6.686;2023-04-24T10:31:10;100173.47;;;10.60;100.00
13068;BME280;6600;51.362;6.686;2023-04-24T10:33:38;100179.31;;;10.57;100.00
13068;BME280;6600;51.362;6.686;2023-04-24T10:36:04;100178.84;;;10.60;100.00
13068;BME280;6600;51.362;6.686;2023-04-24T10:38:30;100187.66;;;10.49;100.00
13068;BME280;6600;51.362;6.686;2023-04-24T10:41:12;100189.41;;;10.55;100.00
13068;BME280;6600;51.362;6.686;2023-04-24T10:43:42;100195.72;;;10.31;100.00
13068;BME280;6600;51.362;6.686;2023-04-24T10:46:08;100199.38;;;10.37;100.00
13068;BME280;6600;51.362;6.686;2023-04-24T10:48:35;100195.22;;;10.52;100.00
13068;BME280;6600;51.362;6.686;2023-04-24T10:51:01;100198.44;;;10.73;100.00
13068;BME280;6600;51.362;6.686;2023-04-24T10:53:28;100204.97;;;10.77;100.00
13068;BME280;6600;51.362;6.686;2023-04-24T10:55:58;100214.13;;;10.99;100.00
13068;BME280;6600;51.362;6.686;2023-04-24T10:58:25;100213.91;;;11.12;100.00
13068;BME280;6600;51.362;6.686;2023-04-24T11:01:00;100219.28;;;11.12;100.00
13068;BME280;6600;51.362;6.686;2023-04-24T11:03:30;100223.94;;;11.28;100.00
13068;BME280;6600;51.362;6.686;2023-04-24T11:05:59;100230.13;;;11.29;100.00
13068;BME280;6600;51.362;6.686;2023-04-24T11:08:25;100230.53;;;10.91;100.00
13068;BME280;6600;51.362;6.686;2023-04-24T11:16:44;100244.50;;;10.51;100.00
13068;BME280;6600;51.362;6.686;2023-04-24T11:19:24;100253.03;;;10.60;100.00
13068;BME280;6600;51.362;6.686;2023-04-24T11:22:01;100256.66;;;10.65;100.00
13068;BME280;6600;51.362;6.686;2023-04-24T11:27:14;100254.09;;;11.00;99.61
13068;BME280;6600;51.362;6.686;2023-04-24T11:35:01;100262.69;;;11.67;96.95
13068;BME280;6600;51.362;6.686;2023-04-24T11:37:29;100270.78;;;11.90;96.16
13068;BME280;6600;51.362;6.686;2023-04-24T11:39:58;100269.59;;;11.98;93.49
13068;BME280;6600;51.362;6.686;2023-04-24T11:42:23;100273.31;;;12.08;93.53
13068;BME280;6600;51.362;6.686;2023-04-24T11:44:52;100272.94;;;12.28;92.66
13068;BME280;6600;51.362;6.686;2023-04-24T11:47:18;100280.78;;;12.30;91.77
13068;BME280;6600;51.362;6.686;2023-04-24T11:49:43;100280.06;;;12.23;91.90
13068;BME280;6600;51.362;6.686;2023-04-24T11:52:09;100288.97;;;12.00;92.35
13068;BME280;6600;51.362;6.686;2023-04-24T11:54:35;100282.81;;;11.88;93.41
13068;BME280;6600;51.362;6.686;2023-04-24T11:57:04;100298.34;;;11.86;92.17
13068;BME280;6600;51.362;6.686;2023-04-24T11:59:35;100291.75;;;11.70;91.58
13068;BME280;6600;51.362;6.686;2023-04-24T12:02:00;100292.59;;;11.71;93.04
13068;BME280;6600;51.362;6.686;2023-04-24T12:04:26;100298.78;;;11.71;92.88
13068;BME280;6600;51.362;6.686;2023-04-24T12:07:03;100302.34;;;11.30;92.47
13068;BME280;6600;51.362;6.686;2023-04-24T12:09:44;100316.38;;;11.14;92.37
13068;BME280;6600;51.362;6.686;2023-04-24T12:12:11;100321.06;;;11.19;92.33
13068;BME280;6600;51.362;6.686;2023-04-24T12:14:51;100328.78;;;10.97;89.90
13068;BME280;6600;51.362;6.686;2023-04-24T12:17:24;100337.44;;;10.99;91.01
13068;BME280;6600;51.362;6.686;2023-04-24T12:19:49;100331.25;;;10.98;90.36
13068;BME280;6600;51.362;6.686;2023-04-24T12:22:16;100335.34;;;11.01;89.87
13068;BME280;6600;51.362;6.686;2023-04-24T12:27:26;100342.03;;;11.51;92.32
13068;BME280;6600;51.362;6.686;2023-04-24T12:29:53;100347.09;;;11.71;92.97
13068;BME280;6600;51.362;6.686;2023-04-24T12:32:19;100337.28;;;11.65;90.07
13068;BME280;6600;51.362;6.686;2023-04-24T12:34:44;100354.16;;;11.65;89.41
13068;BME280;6600;51.362;6.686;2023-04-24T12:37:11;100351.66;;;11.71;88.78
13068;BME280;6600;51.362;6.686;2023-04-24T12:39:37;100348.69;;;11.60;87.30
13068;BME280;6600;51.362;6.686;2023-04-24T12:42:02;100358.47;;;11.55;87.91
13068;BME280;6600;51.362;6.686;2023-04-24T12:44:32;100357.53;;;11.49;87.94
13068;BME280;6600;51.362;6.686;2023-04-24T12:47:02;100352.78;;;11.51;87.84
13068;BME280;6600;51.362;6.686;2023-04-24T12:49:29;100360.63;;;11.23;86.26
13068;BME280;6600;51.362;6.686;2023-04-24T12:51:55;100365.75;;;11.25;86.64
13068;BME280;6600;51.362;6.686;2023-04-24T12:54:20;100372.06;;;11.30;86.08
13068;BME280;6600;51.362;6.686;2023-04-24T12:56:46;100368.16;;;11.14;86.75
13068;BME280;6600;51.362;6.686;2023-04-24T12:59:11;100372.88;;;11.01;86.78
13068;BME280;6600;51.362;6.686;2023-04-24T13:01:36;100380.38;;;11.10;87.79
13068;BME280;6600;51.362;6.686;2023-04-24T13:04:02;100382.25;;;11.10;86.95
13068;BME280;6600;51.362;6.686;2023-04-24T13:06:27;100383.09;;;11.22;87.08
13068;BME280;6600;51.362;6.686;2023-04-24T13:08:52;100389.78;;;11.31;87.34
13068;BME280;6600;51.362;6.686;2023-04-24T13:11:20;100380.13;;;11.30;85.12
13068;BME280;6600;51.362;6.686;2023-04-24T13:13:46;100384.16;;;11.21;84.80
13068;BME280;6600;51.362;6.686;2023-04-24T13:16:12;100397.16;;;11.36;84.54